createdAt,value
2019-02-26T00:02:02.545Z,26.13
2019-02-26T00:04:32.749Z,25.10
2019-02-26T00:07:02.910Z,26.07
2019-02-26T00:09:35.032Z,21.57
2019-02-26T00:12:03.116Z,21.97
2019-02-26T00:14:32.406Z,21.30
2019-02-26T00:17:06.161Z,20.50
2019-02-26T00:19:32.689Z,19.67
2019-02-26T00:22:01.956Z,18.10
2019-02-26T00:24:35.023Z,16.20
2019-02-26T00:27:03.764Z,14.27
2019-02-26T00:29:34.655Z,22.63
2019-02-26T00:32:03.912Z,16.77
2019-02-26T00:34:34.600Z,18.60
2019-02-26T00:37:06.159Z,20.77
2019-02-26T00:39:35.051Z,20.70
2019-02-26T00:42:05.158Z,18.67
2019-02-26T00:44:35.469Z,23.07
2019-02-26T00:47:06.764Z,20.80
2019-02-26T00:49:36.485Z,20.83
2019-02-26T00:52:06.401Z,20.70
2019-02-26T00:54:36.712Z,16.20
2019-02-26T00:57:08.613Z,16.97
2019-02-26T00:59:38.670Z,17.83
2019-02-26T01:02:07.844Z,21.50
2019-02-26T01:04:38.705Z,18.43
2019-02-26T01:07:08.105Z,17.40
2019-02-26T01:09:37.326Z,19.27
2019-02-26T01:12:09.017Z,19.93
2019-02-26T01:14:39.073Z,18.07
2019-02-26T01:17:09.978Z,18.63
2019-02-26T01:19:40.805Z,17.60
2019-02-26T01:22:10.375Z,16.17
2019-02-26T01:24:39.618Z,16.13
2019-02-26T01:27:08.949Z,21.30
2019-02-26T01:29:38.229Z,28.63
2019-02-26T01:32:11.019Z,22.93
2019-02-26T01:34:40.424Z,23.43
2019-02-26T01:37:10.437Z,22.57
2019-02-26T01:39:42.299Z,19.50
2019-02-26T01:42:13.324Z,21.73
2019-02-26T01:44:44.352Z,24.73
2019-02-26T01:47:13.132Z,30.77
2019-02-26T01:49:44.075Z,23.70
2019-02-26T01:52:14.979Z,25.87
2019-02-26T01:54:44.281Z,22.17
2019-02-26T01:57:13.540Z,21.43
2019-02-26T01:59:42.843Z,20.93
2019-02-26T02:02:14.699Z,22.33
2019-02-26T02:04:43.491Z,22.43
2019-02-26T02:07:12.835Z,24.57
2019-02-26T02:09:42.102Z,25.47
2019-02-26T02:12:11.380Z,34.67
2019-02-26T02:14:40.656Z,23.40
2019-02-26T02:17:10.882Z,19.20
2019-02-26T02:19:40.943Z,20.87
2019-02-26T02:22:12.067Z,20.00
2019-02-26T02:24:43.489Z,20.27
2019-02-26T02:27:15.004Z,18.93
2019-02-26T02:29:44.164Z,15.90
2019-02-26T02:32:14.042Z,16.93
2019-02-26T02:34:43.345Z,18.87
2019-02-26T02:37:12.589Z,17.93
2019-02-26T02:39:41.877Z,20.10
2019-02-26T02:42:13.333Z,22.33
2019-02-26T02:44:44.406Z,19.73
2019-02-26T02:47:13.000Z,18.80
2019-02-26T02:49:44.265Z,19.00
2019-02-26T02:52:13.224Z,20.07
2019-02-26T02:54:44.173Z,22.27
2019-02-26T02:57:13.508Z,20.77
2019-02-26T02:59:42.805Z,18.03
2019-02-26T03:02:14.413Z,19.37
2019-02-26T03:04:43.453Z,19.07
2019-02-26T03:07:15.048Z,17.33
2019-02-26T03:09:45.670Z,19.43
2019-02-26T03:12:14.671Z,18.93
2019-02-26T03:14:44.522Z,17.50
2019-02-26T03:17:14.730Z,23.33
2019-02-26T03:19:44.777Z,21.93
2019-02-26T03:22:15.356Z,23.30
2019-02-26T03:24:45.061Z,22.67
2019-02-26T03:27:14.375Z,38.90
2019-02-26T03:29:45.046Z,234.67
2019-02-26T03:32:14.699Z,74.87
2019-02-26T03:34:44.000Z,24.70
2019-02-26T03:37:13.297Z,27.00
2019-02-26T03:39:42.620Z,30.07
2019-02-26T03:42:14.112Z,30.40
2019-02-26T03:44:46.174Z,26.30
2019-02-26T03:47:16.277Z,29.30
2019-02-26T03:49:44.699Z,32.50
2019-02-26T03:52:15.875Z,85.60
2019-02-26T03:54:45.990Z,150.27
2019-02-26T03:57:16.761Z,111.50
2019-02-26T03:59:46.992Z,28.33
2019-02-26T04:02:18.142Z,25.80
2019-02-26T04:04:51.751Z,24.63
2019-02-26T04:07:18.246Z,24.00
2019-02-26T04:09:52.434Z,26.17
2019-02-26T04:12:20.647Z,25.47
2019-02-26T04:14:49.353Z,27.93
2019-02-26T04:17:23.112Z,27.50
2019-02-26T04:19:49.662Z,24.00
2019-02-26T04:22:32.020Z,22.00
2019-02-26T04:25:13.179Z,24.60
2019-02-26T04:27:53.317Z,24.63
2019-02-26T04:31:02.588Z,26.93
2019-02-26T04:34:20.107Z,20.30
2019-02-26T04:37:35.103Z,19.07
2019-02-26T04:40:14.150Z,21.77
2019-02-26T04:43:30.448Z,17.47
2019-02-26T04:46:31.599Z,18.00
2019-02-26T04:48:59.998Z,18.43
2019-02-26T04:51:29.409Z,20.00
2019-02-26T04:53:59.546Z,22.93
2019-02-26T04:56:33.527Z,19.77
2019-02-26T04:59:03.341Z,23.30
2019-02-26T05:01:31.759Z,25.33
2019-02-26T05:04:01.165Z,26.13
2019-02-26T05:06:30.500Z,21.23
2019-02-26T05:09:02.530Z,21.63
2019-02-26T05:11:32.687Z,20.03
2019-02-26T05:14:01.708Z,25.33
2019-02-26T05:16:32.841Z,25.60
2019-02-26T05:19:01.957Z,23.53
2019-02-26T05:21:33.269Z,26.40
2019-02-26T05:24:03.015Z,20.30
2019-02-26T05:26:32.441Z,23.83
2019-02-26T05:29:01.742Z,20.20
2019-02-26T05:31:33.150Z,23.87
2019-02-26T05:34:01.939Z,24.13
2019-02-26T05:36:33.777Z,21.50
2019-02-26T05:39:02.324Z,17.93
2019-02-26T05:41:31.612Z,24.43
2019-02-26T05:44:03.509Z,21.60
2019-02-26T05:46:31.819Z,21.60
2019-02-26T05:49:03.034Z,28.37
2019-02-26T05:51:33.515Z,22.83
2019-02-26T05:54:07.707Z,19.30
2019-02-26T05:56:36.623Z,13.97
2019-02-26T05:59:07.496Z,18.60
2019-02-26T06:01:36.067Z,22.23
2019-02-26T06:04:07.720Z,40.67
2019-02-26T06:06:36.292Z,44.47
2019-02-26T06:09:07.726Z,41.57
2019-02-26T06:11:39.965Z,50.30
2019-02-26T06:14:12.013Z,41.77
2019-02-26T06:16:39.089Z,39.70
2019-02-26T06:19:11.015Z,38.47
2019-02-26T06:21:43.935Z,36.13
2019-02-26T06:24:11.714Z,33.90
2019-02-26T06:26:43.035Z,36.20
2019-02-26T06:29:11.852Z,34.60
2019-02-26T06:31:42.255Z,29.23
2019-02-26T06:34:14.366Z,25.03
2019-02-26T06:36:44.219Z,28.43
2019-02-26T06:39:14.047Z,39.90
2019-02-26T06:41:44.355Z,44.37
2019-02-26T06:44:14.321Z,126.30
2019-02-26T06:46:43.607Z,132.17
2019-02-26T06:49:12.951Z,106.67
2019-02-26T06:51:42.985Z,123.07
2019-02-26T06:54:15.332Z,138.80
2019-02-26T06:56:46.012Z,105.20
2019-02-26T06:59:15.034Z,49.57
2019-02-26T07:01:44.341Z,45.47
2019-02-26T07:04:13.698Z,43.67
2019-02-26T07:06:43.052Z,36.63
2019-02-26T07:09:13.793Z,38.20
2019-02-26T07:11:43.346Z,44.83
2019-02-26T07:14:12.747Z,31.17
2019-02-26T07:16:42.056Z,38.17
2019-02-26T07:19:12.421Z,34.30
2019-02-26T07:21:42.854Z,28.33
2019-02-26T07:24:15.245Z,28.67
2019-02-26T07:26:45.875Z,28.90
2019-02-26T07:29:17.558Z,18.37
2019-02-26T07:31:47.298Z,19.23
2019-02-26T07:34:18.275Z,20.60
2019-02-26T07:36:49.699Z,20.57
2019-02-26T07:39:20.883Z,18.63
2019-02-26T07:41:51.554Z,17.73
2019-02-26T07:44:21.715Z,20.37
2019-02-26T07:46:51.722Z,17.00
2019-02-26T07:49:21.044Z,17.83
2019-02-26T07:51:50.307Z,19.73
2019-02-26T07:54:19.576Z,16.23
2019-02-26T07:56:50.164Z,13.90
2019-02-26T07:59:27.414Z,21.30
2019-02-26T08:01:50.739Z,20.80
2019-02-26T08:04:19.956Z,14.17
2019-02-26T08:06:49.452Z,14.83
2019-02-26T08:09:21.134Z,16.70
2019-02-26T08:11:49.642Z,17.23
2019-02-26T08:14:20.881Z,14.20
2019-02-26T08:16:53.645Z,17.17
2019-02-26T08:19:20.776Z,16.70
2019-02-26T08:21:50.805Z,13.80
2019-02-26T08:24:24.380Z,20.20
2019-02-26T08:26:51.976Z,31.13
2019-02-26T08:29:21.229Z,19.03
2019-02-26T08:31:52.046Z,16.83
2019-02-26T08:34:21.545Z,21.27
2019-02-26T08:36:50.807Z,16.67
2019-02-26T08:39:20.085Z,19.00
2019-02-26T08:42:17.302Z,16.97
2019-02-26T08:44:48.676Z,20.67
2019-02-26T08:47:19.145Z,16.70
2019-02-26T08:49:48.444Z,20.37
2019-02-26T08:52:19.904Z,24.37
2019-02-26T08:54:48.676Z,25.87
2019-02-26T08:57:17.934Z,10.63
2019-02-26T08:59:47.764Z,12.60
2019-02-26T09:02:18.148Z,12.00
2019-02-26T09:04:47.889Z,13.73
2019-02-26T09:07:18.967Z,12.20
2019-02-26T09:09:49.940Z,8.30
2019-02-26T09:12:19.926Z,9.67
2019-02-26T09:14:50.028Z,9.77
2019-02-26T09:17:23.187Z,9.13
2019-02-26T09:19:50.952Z,8.20
2019-02-26T09:22:23.420Z,10.97
2019-02-26T09:24:54.338Z,8.70
2019-02-26T09:27:24.813Z,10.30
2019-02-26T09:29:54.037Z,9.70
2019-02-26T09:32:23.417Z,9.10
2019-02-26T09:34:54.466Z,8.57
2019-02-26T09:37:23.600Z,8.63
2019-02-26T09:39:54.327Z,11.20
2019-02-26T09:42:25.541Z,6.50
2019-02-26T09:44:55.458Z,9.10
2019-02-26T09:47:31.043Z,12.47
2019-02-26T09:50:00.041Z,10.27
2019-02-26T09:52:30.349Z,5.57
2019-02-26T09:55:00.328Z,14.80
2019-02-26T09:57:29.590Z,13.87
2019-02-26T10:00:00.209Z,9.77
2019-02-26T10:02:29.926Z,9.37
2019-02-26T10:04:59.227Z,13.60
2019-02-26T10:07:30.458Z,5.73
2019-02-26T10:10:00.443Z,10.17
2019-02-26T10:12:32.042Z,22.60
2019-02-26T10:15:02.459Z,11.27
2019-02-26T10:17:33.321Z,9.30
2019-02-26T10:20:07.031Z,7.40
2019-02-26T10:22:38.012Z,10.80
2019-02-26T10:25:07.382Z,11.97
2019-02-26T10:27:38.283Z,7.93
2019-02-26T10:30:11.275Z,11.43
2019-02-26T10:32:39.941Z,11.33
2019-02-26T10:35:14.036Z,14.50
2019-02-26T10:37:46.592Z,9.43
2019-02-26T10:40:17.165Z,12.07
2019-02-26T10:42:46.896Z,9.60
2019-02-26T10:45:17.097Z,8.07
2019-02-26T10:47:46.332Z,6.63
2019-02-26T10:50:19.425Z,6.37
2019-02-26T10:52:47.871Z,7.30
2019-02-26T10:55:17.634Z,13.03
2019-02-26T10:57:48.059Z,10.73
2019-02-26T11:00:22.603Z,5.83
2019-02-26T11:02:54.019Z,5.80
2019-02-26T11:05:26.344Z,9.80
2019-02-26T11:07:57.905Z,11.67
2019-02-26T11:10:25.831Z,9.70
2019-02-26T11:12:58.629Z,15.63
2019-02-26T11:15:26.834Z,16.03
2019-02-26T11:17:57.011Z,9.13
2019-02-26T11:20:30.097Z,12.63
2019-02-26T11:22:57.288Z,13.43
2019-02-26T11:25:27.317Z,4.13
2019-02-26T11:27:56.863Z,9.80
2019-02-26T11:30:29.455Z,7.17
2019-02-26T11:33:02.210Z,6.17
2019-02-26T11:35:28.029Z,5.40
2019-02-26T11:37:58.138Z,5.70
2019-02-26T11:40:30.268Z,12.20
2019-02-26T11:43:00.025Z,7.57
2019-02-26T11:45:29.503Z,8.53
2019-02-26T11:48:01.003Z,3.60
2019-02-26T11:50:29.744Z,4.37
2019-02-26T11:52:58.995Z,3.50
2019-02-26T11:55:30.054Z,4.97
2019-02-26T11:57:59.193Z,9.03
2019-02-26T12:00:50.675Z,17.03
2019-02-26T12:03:22.836Z,2.60
2019-02-26T12:05:53.527Z,3.30
2019-02-26T12:08:24.492Z,4.47
2019-02-26T12:10:57.758Z,3.77
2019-02-26T12:13:25.037Z,2.67
2019-02-26T12:15:54.888Z,3.83
2019-02-26T12:18:24.217Z,10.93
2019-02-26T12:20:53.519Z,2.87
2019-02-26T12:23:22.937Z,4.20
2019-02-26T12:25:53.651Z,3.30
2019-02-26T12:28:25.166Z,3.90
2019-02-26T12:30:54.024Z,2.90
2019-02-26T12:33:23.286Z,37.73
2019-02-26T12:35:52.602Z,2.63
2019-02-26T12:38:21.876Z,4.23
2019-02-26T12:40:53.388Z,5.93
2019-02-26T12:43:22.096Z,5.83
2019-02-26T12:45:52.043Z,4.13
2019-02-26T12:48:22.819Z,6.23
2019-02-26T12:50:55.063Z,4.63
2019-02-26T12:53:23.684Z,7.63
2019-02-26T12:55:54.293Z,5.33
2019-02-26T12:58:26.811Z,3.47
2019-02-26T13:00:54.788Z,4.83
2019-02-26T13:03:24.117Z,5.73
2019-02-26T13:05:53.356Z,3.53
2019-02-26T13:08:24.104Z,5.50
2019-02-26T13:10:56.111Z,4.47
2019-02-26T13:13:24.594Z,4.33
2019-02-26T13:15:53.869Z,4.57
2019-02-26T13:18:23.083Z,4.97
2019-02-26T13:20:57.333Z,4.93
2019-02-26T13:23:23.738Z,3.87
2019-02-26T13:25:53.021Z,3.77
2019-02-26T13:28:29.395Z,5.27
2019-02-26T13:30:53.264Z,4.67
2019-02-26T13:33:27.515Z,5.67
2019-02-26T13:36:00.369Z,3.00
2019-02-26T13:38:28.967Z,3.03
2019-02-26T13:41:01.593Z,3.80
2019-02-26T13:43:26.145Z,8.40
2019-02-26T13:45:55.400Z,3.47
2019-02-26T13:48:24.701Z,3.60
2019-02-26T13:50:53.980Z,7.67
2019-02-26T13:53:23.184Z,5.90
2019-02-26T13:55:52.466Z,2.83
2019-02-26T13:58:21.698Z,7.27
2019-02-26T14:00:50.948Z,3.97
2019-02-26T14:03:20.246Z,3.03
2019-02-26T14:05:49.511Z,5.00
2019-02-26T14:08:18.859Z,3.03
2019-02-26T14:10:48.158Z,3.93
2019-02-26T14:13:17.456Z,5.57
2019-02-26T14:15:46.733Z,7.20
2019-02-26T14:18:16.025Z,5.70
2019-02-26T14:20:45.648Z,10.73
2019-02-26T14:23:14.936Z,3.63
2019-02-26T14:25:44.409Z,8.20
2019-02-26T14:28:13.730Z,3.67
2019-02-26T14:30:43.012Z,3.93
2019-02-26T14:33:12.484Z,4.40
2019-02-26T14:35:41.789Z,2.23
2019-02-26T14:38:11.162Z,3.00
2019-02-26T14:40:40.445Z,3.33
2019-02-26T14:43:10.649Z,5.43
2019-02-26T14:45:39.956Z,13.00
2019-02-26T14:48:09.445Z,8.80
2019-02-26T14:50:38.958Z,9.00
2019-02-26T14:53:08.261Z,46.00
2019-02-26T14:55:37.526Z,11.20
2019-02-26T14:58:06.852Z,6.67
2019-02-26T15:00:36.377Z,4.50
2019-02-26T15:03:05.955Z,3.40
2019-02-26T15:05:35.248Z,3.23
2019-02-26T15:08:04.620Z,8.10
2019-02-26T15:10:34.059Z,2.53
2019-02-26T15:13:03.338Z,4.07
2019-02-26T15:15:32.652Z,2.97
2019-02-26T15:18:01.956Z,2.33
2019-02-26T15:20:31.229Z,4.97
2019-02-26T15:23:00.513Z,4.57
2019-02-26T15:25:29.765Z,19.23
2019-02-26T15:28:05.158Z,3.70
2019-02-26T15:30:30.029Z,3.63
2019-02-26T15:32:59.307Z,7.40
2019-02-26T15:35:28.757Z,2.60
2019-02-26T15:37:58.054Z,3.57
2019-02-26T15:40:27.299Z,6.30
2019-02-26T15:42:56.563Z,1.87
2019-02-26T15:45:29.040Z,2.73
2019-02-26T15:47:57.665Z,3.13
2019-02-26T15:50:26.915Z,11.27
2019-02-26T15:52:56.213Z,5.37
2019-02-26T15:55:25.898Z,4.20
2019-02-26T15:57:56.484Z,5.30
2019-02-26T16:00:25.955Z,2.53
2019-02-26T16:02:58.992Z,4.97
2019-02-26T16:05:26.158Z,6.37
2019-02-26T16:07:55.443Z,5.73
2019-02-26T16:10:24.797Z,6.97
2019-02-26T16:12:54.502Z,43.57
2019-02-26T16:15:23.791Z,61.63
2019-02-26T16:17:53.075Z,9.97
2019-02-26T16:20:22.398Z,9.20
2019-02-26T16:22:51.770Z,5.40
2019-02-26T16:25:21.078Z,12.10
2019-02-26T16:27:53.498Z,8.43
2019-02-26T16:30:21.780Z,11.30
2019-02-26T16:32:51.056Z,13.27
2019-02-26T16:35:24.434Z,7.40
2019-02-26T16:37:51.326Z,12.30
2019-02-26T16:40:20.884Z,7.97
2019-02-26T16:42:50.446Z,8.33
2019-02-26T16:45:21.289Z,25.77
2019-02-26T16:47:50.640Z,10.30
2019-02-26T16:50:25.191Z,9.63
2019-02-26T16:52:54.607Z,7.77
2019-02-26T16:55:24.055Z,24.63
2019-02-26T16:57:53.448Z,81.17
2019-02-26T17:00:23.198Z,71.90
2019-02-26T17:02:52.614Z,36.53
2019-02-26T17:05:21.996Z,21.60
2019-02-26T17:07:51.297Z,14.53
2019-02-26T17:10:20.689Z,20.80
2019-02-26T17:12:51.442Z,17.30
2019-02-26T17:15:25.492Z,12.83
2019-02-26T17:17:53.443Z,72.70
2019-02-26T17:20:23.264Z,67.97
2019-02-26T17:22:52.577Z,22.50
2019-02-26T17:25:21.930Z,25.23
2019-02-26T17:27:51.297Z,21.47
2019-02-26T17:30:20.849Z,23.73
2019-02-26T17:32:51.609Z,24.47
2019-02-26T17:35:20.996Z,14.40
2019-02-26T17:37:50.322Z,18.07
2019-02-26T17:40:19.828Z,19.33
2019-02-26T17:42:51.315Z,13.13
2019-02-26T17:45:20.272Z,19.83
2019-02-26T17:47:49.699Z,22.07
2019-02-26T17:50:27.568Z,18.70
2019-02-26T17:52:56.945Z,16.10
2019-02-26T17:55:26.578Z,55.60
2019-02-26T17:57:56.023Z,62.87
2019-02-26T18:00:25.745Z,25.10
2019-02-26T18:02:55.125Z,16.70
2019-02-26T18:05:24.515Z,10.70
2019-02-26T18:07:53.871Z,9.63
2019-02-26T18:10:23.273Z,8.13
2019-02-26T18:12:53.993Z,11.43
2019-02-26T18:15:23.420Z,13.80
2019-02-26T18:17:52.754Z,20.30
2019-02-26T18:20:22.121Z,19.83
2019-02-26T18:22:51.487Z,11.13
2019-02-26T18:25:20.880Z,16.93
2019-02-26T18:27:50.154Z,22.57
2019-02-26T18:30:25.815Z,13.33
2019-02-26T18:32:58.990Z,18.23
2019-02-26T18:35:28.714Z,21.13
2019-02-26T18:37:58.047Z,18.57
2019-02-26T18:40:28.390Z,20.50
2019-02-26T18:42:58.253Z,25.20
2019-02-26T18:45:29.247Z,184.50
2019-02-26T18:47:58.501Z,41.77
2019-02-26T18:50:28.532Z,116.43
2019-02-26T18:52:58.891Z,43.03
2019-02-26T18:55:32.315Z,27.87
2019-02-26T18:58:00.654Z,25.80
2019-02-26T19:00:33.113Z,18.30
2019-02-26T19:03:02.485Z,27.10
2019-02-26T19:05:32.185Z,41.77
2019-02-26T19:08:05.555Z,36.00
2019-02-26T19:10:32.680Z,41.43
2019-02-26T19:13:02.732Z,30.00
2019-02-26T19:15:32.619Z,32.17
2019-02-26T19:18:07.126Z,28.00
2019-02-26T19:20:36.689Z,30.20
2019-02-26T19:23:06.413Z,31.90
2019-02-26T19:25:41.618Z,36.73
2019-02-26T19:28:10.300Z,25.90
2019-02-26T19:30:39.646Z,27.27
2019-02-26T19:33:08.975Z,34.90
2019-02-26T19:35:40.291Z,109.60
2019-02-26T19:38:09.291Z,68.30
2019-02-26T19:40:42.423Z,66.43
2019-02-26T19:43:14.155Z,117.27
2019-02-26T19:45:48.004Z,44.40
2019-02-26T19:48:17.317Z,40.93
2019-02-26T19:50:48.731Z,43.33
2019-02-26T19:53:20.208Z,33.30
2019-02-26T19:55:53.146Z,41.30
2019-02-26T19:58:22.657Z,34.87
2019-02-26T20:00:53.166Z,25.30
2019-02-26T20:03:23.116Z,20.80
2019-02-26T20:05:55.856Z,73.97
2019-02-26T20:08:25.239Z,19.27
2019-02-26T20:11:22.375Z,16.13
2019-02-26T20:13:50.985Z,12.17
2019-02-26T20:16:21.770Z,14.83
2019-02-26T20:18:51.188Z,61.63
2019-02-26T20:21:20.526Z,14.47
2019-02-26T20:23:53.547Z,11.60
2019-02-26T20:26:22.977Z,15.30
2019-02-26T20:28:52.273Z,12.53
2019-02-26T20:31:22.020Z,9.63
2019-02-26T20:33:51.774Z,23.27
2019-02-26T20:36:21.120Z,12.37
2019-02-26T20:38:50.550Z,14.27
2019-02-26T20:41:22.121Z,23.90
2019-02-26T20:43:50.914Z,26.47
2019-02-26T20:46:20.280Z,33.80
2019-02-26T20:48:49.638Z,31.07
2019-02-26T20:51:18.929Z,29.63
2019-02-26T20:53:48.641Z,29.10
2019-02-26T20:56:17.941Z,28.50
2019-02-26T20:58:47.377Z,21.97
2019-02-26T21:01:16.983Z,22.80
2019-02-26T21:03:48.383Z,28.03
2019-02-26T21:06:18.042Z,27.83
2019-02-26T21:08:48.078Z,19.87
2019-02-26T21:11:17.413Z,21.47
2019-02-26T21:13:46.941Z,24.17
2019-02-26T21:16:18.562Z,22.97
2019-02-26T21:18:47.383Z,22.97
2019-02-26T21:21:16.744Z,22.53
2019-02-26T21:23:48.006Z,23.20
2019-02-26T21:26:19.275Z,27.33
2019-02-26T21:28:48.431Z,26.97
2019-02-26T21:31:19.076Z,21.93
2019-02-26T21:33:49.026Z,26.73
2019-02-26T21:36:18.353Z,25.30
2019-02-26T21:38:47.906Z,22.33
2019-02-26T21:44:10.101Z,24.63
2019-02-26T21:46:43.789Z,31.10
2019-02-26T21:49:21.775Z,30.33
2019-02-26T21:51:55.270Z,29.20
2019-02-26T21:54:25.313Z,19.17
2019-02-26T21:56:54.681Z,19.07
2019-02-26T21:59:24.044Z,18.60
2019-02-26T22:01:53.400Z,23.63
2019-02-26T22:04:22.755Z,18.53
2019-02-26T22:06:52.153Z,17.20
2019-02-26T22:09:21.564Z,19.60
2019-02-26T22:11:51.333Z,17.60
2019-02-26T22:14:20.677Z,17.80
2019-02-26T22:16:51.483Z,23.90
2019-02-26T22:19:21.613Z,19.47
2019-02-26T22:21:52.703Z,20.37
2019-02-26T22:24:22.120Z,19.33
2019-02-26T22:26:51.469Z,16.03
2019-02-26T22:29:20.866Z,15.73
2019-02-26T22:31:50.174Z,14.53
2019-02-26T22:34:19.762Z,12.03
2019-02-26T22:36:49.090Z,16.57
2019-02-26T22:39:22.260Z,18.23
2019-02-26T22:41:49.434Z,15.77
2019-02-26T22:44:21.515Z,15.93
2019-02-26T22:46:49.720Z,12.97
2019-02-26T22:49:20.685Z,13.07
2019-02-26T22:51:50.194Z,13.00
2019-02-26T22:54:19.604Z,14.83
2019-02-26T22:56:48.944Z,12.70
2019-02-26T22:59:18.286Z,15.13
2019-02-26T23:01:48.820Z,15.60
2019-02-26T23:04:19.822Z,17.27
2019-02-26T23:06:49.190Z,18.27
2019-02-26T23:09:23.979Z,14.93
2019-02-26T23:11:53.286Z,18.43
2019-02-26T23:14:22.605Z,14.40
2019-02-26T23:16:52.585Z,20.40
2019-02-26T23:19:22.024Z,17.87
2019-02-26T23:21:51.541Z,16.67
2019-02-26T23:24:21.128Z,20.77
2019-02-26T23:26:50.573Z,15.70
2019-02-26T23:29:19.868Z,14.70
2019-02-26T23:31:49.265Z,10.87
2019-02-26T23:34:21.887Z,15.00
2019-02-26T23:36:49.613Z,9.10
2019-02-26T23:39:19.025Z,10.43
2019-02-26T23:41:48.361Z,11.73
2019-02-26T23:44:18.534Z,14.97
2019-02-26T23:46:47.931Z,13.93
2019-02-26T23:49:17.259Z,13.27
2019-02-26T23:51:46.576Z,9.40
2019-02-26T23:54:16.305Z,12.97
2019-02-26T23:56:49.797Z,10.57
2019-02-26T23:59:24.113Z,13.13
